Time;durP1;ratioP1;P1;durP2;ratioP2;P2;SDS_P1;SDS_P2;PMS_P1;PMS_P2;Temp;Humidity;BMP_temperature;BMP_pressure;BME280_temperature;BME280_humidity;BME280_pressure;Samples;Min_cycle;Max_cycle;Signal;HPM_P1;HPM_P2
2021/05/21 00:00:03;;;;;;;5.37;4.20;;;;;;;10.55;75.16;94354.22;1753612;81;21032;-50
2021/05/21 00:02:32;;;;;;;7.85;5.70;;;;;;;10.52;75.35;94356.52;1754007;80;21001;-51
2021/05/21 00:04:58;;;;;;;7.15;5.37;;;;;;;10.45;75.63;94356.20;1758734;80;21049;-49
2021/05/21 00:07:26;;;;;;;5.87;4.67;;;;;;;10.44;75.67;94362.92;1771658;80;21280;-51
2021/05/21 00:09:52;;;;;;;4.95;4.53;;;;;;;10.41;75.91;94361.67;1755076;80;20965;-49
2021/05/21 00:12:19;;;;;;;7.25;5.42;;;;;;;10.34;76.29;94357.85;1752873;80;21052;-51
2021/05/21 00:14:46;;;;;;;7.97;6.28;;;;;;;10.28;76.43;94352.78;1757823;80;21025;-50
2021/05/21 00:17:13;;;;;;;6.10;5.30;;;;;;;10.24;76.35;94359.03;1765708;80;21104;-49
2021/05/21 00:19:39;;;;;;;6.33;5.67;;;;;;;10.24;76.10;94352.16;1751511;80;21138;-51
2021/05/21 00:22:06;;;;;;;7.80;5.67;;;;;;;10.23;76.25;94345.13;1756632;80;21507;-49
2021/05/21 00:24:34;;;;;;;7.95;5.53;;;;;;;10.21;76.46;94350.32;1769095;80;21028;-50
2021/05/21 00:27:00;;;;;;;5.75;4.85;;;;;;;10.18;76.21;94356.11;1761285;80;21054;-49
2021/05/21 00:29:27;;;;;;;5.60;4.80;;;;;;;10.16;76.28;94353.05;1753133;80;21012;-50
2021/05/21 00:31:54;;;;;;;6.72;4.80;;;;;;;10.16;76.35;94356.42;1757999;80;21524;-49
2021/05/21 00:34:21;;;;;;;6.72;5.50;;;;;;;10.15;76.11;94357.02;1752199;80;21565;-50
2021/05/21 00:36:48;;;;;;;9.50;6.10;;;;;;;10.15;76.07;94361.14;1755373;80;21073;-50
2021/05/21 00:39:14;;;;;;;5.83;5.22;;;;;;;10.16;76.21;94368.80;1761950;80;21071;-50
2021/05/21 00:41:41;;;;;;;14.35;9.23;;;;;;;10.16;76.26;94368.80;1768550;80;21070;-49
2021/05/21 00:44:07;;;;;;;9.83;6.83;;;;;;;10.14;76.39;94367.11;1768882;80;21594;-49
2021/05/21 00:46:35;;;;;;;15.95;10.63;;;;;;;10.16;76.32;94368.80;1770734;80;20968;-49
2021/05/21 00:49:03;;;;;;;13.62;7.72;;;;;;;10.19;76.25;94369.26;1763417;80;20975;-49
2021/05/21 00:51:30;;;;;;;19.65;11.85;;;;;;;10.22;76.17;94364.22;1751592;80;21602;-50
2021/05/21 00:53:57;;;;;;;14.10;9.60;;;;;;;10.25;76.07;94381.18;1759804;80;21064;-49
2021/05/21 00:56:29;;;;;;;8.45;6.33;;;;;;;10.27;75.94;94376.77;1761605;80;20992;-49
2021/05/21 00:58:57;;;;;;;7.55;5.05;;;;;;;10.26;75.67;94378.58;1767095;80;21553;-51
2021/05/21 01:01:30;;;;;;;6.62;5.37;;;;;;;10.17;75.67;94382.06;1767628;80;21593;-50
2021/05/21 01:03:58;;;;;;;5.92;5.28;;;;;;;10.11;76.01;94378.98;1762599;80;21483;-49
2021/05/21 01:06:24;;;;;;;6.10;5.28;;;;;;;10.05;76.27;94385.70;1753195;80;21096;-50
2021/05/21 01:08:52;;;;;;;6.28;5.42;;;;;;;9.99;76.45;94384.72;1749569;80;21011;-49
2021/05/21 01:11:20;;;;;;;8.08;5.05;;;;;;;9.94;76.66;94387.28;1735956;81;20992;-49
2021/05/21 01:13:48;;;;;;;5.92;5.30;;;;;;;9.89;76.67;94390.63;1768153;80;21080;-50
2021/05/21 01:16:15;;;;;;;7.08;5.45;;;;;;;9.84;76.64;94386.47;1759475;80;21507;-50
2021/05/21 01:18:44;;;;;;;5.12;4.55;;;;;;;9.85;76.94;94385.28;1763453;80;21119;-53
2021/05/21 01:21:11;;;;;;;5.85;4.83;;;;;;;9.81;77.06;94392.13;1779347;80;21030;-50
2021/05/21 01:23:37;;;;;;;10.80;5.10;;;;;;;9.73;77.27;94389.47;1772772;80;21000;-50
2021/05/21 01:26:04;;;;;;;5.78;4.72;;;;;;;9.66;77.42;94385.01;1753888;80;21063;-51
2021/05/21 01:28:31;;;;;;;8.10;5.72;;;;;;;9.64;77.64;94394.93;1754545;80;21020;-50
2021/05/21 01:30:58;;;;;;;7.25;5.05;;;;;;;9.63;77.66;94386.53;1752707;80;21073;-49
2021/05/21 01:33:24;;;;;;;11.15;5.90;;;;;;;9.65;77.79;94386.22;1775879;80;21148;-49
2021/05/21 01:35:53;;;;;;;8.15;5.10;;;;;;;9.68;77.87;94384.56;1754587;80;21044;-49
2021/05/21 01:38:20;;;;;;;5.72;4.95;;;;;;;9.70;78.01;94388.41;1756228;81;21068;-50
2021/05/21 01:40:47;;;;;;;9.00;5.20;;;;;;;9.69;77.99;94393.74;1757617;80;21040;-50
2021/05/21 01:43:14;;;;;;;6.58;4.83;;;;;;;9.65;78.11;94395.84;1757729;80;21076;-51
2021/05/21 01:45:42;;;;;;;7.33;5.12;;;;;;;9.67;78.12;94399.52;1764976;80;21540;-49
2021/05/21 01:48:11;;;;;;;4.70;4.30;;;;;;;9.63;78.16;94392.03;1772299;80;21056;-49
2021/05/21 01:50:38;;;;;;;5.65;4.55;;;;;;;9.59;78.31;94399.64;1764616;80;21071;-50
2021/05/21 01:53:05;;;;;;;6.10;4.72;;;;;;;9.54;78.15;94397.45;1754700;80;21091;-49
2021/05/21 01:55:33;;;;;;;6.25;4.50;;;;;;;9.46;78.28;94398.94;1754593;80;21141;-49
2021/05/21 01:57:59;;;;;;;6.67;4.42;;;;;;;9.41;78.36;94404.39;1766245;80;21036;-50
2021/05/21 02:00:26;;;;;;;6.95;4.80;;;;;;;9.39;78.37;94397.80;1775017;80;21024;-49
2021/05/21 02:02:53;;;;;;;9.58;5.00;;;;;;;9.42;78.42;94405.17;1760669;80;21102;-49
2021/05/21 02:05:20;;;;;;;5.03;4.50;;;;;;;9.42;78.33;94396.94;1770366;80;20995;-50
2021/05/21 02:07:47;;;;;;;6.33;4.87;;;;;;;9.39;78.35;94399.95;1779289;80;21130;-49
2021/05/21 02:10:15;;;;;;;7.80;5.58;;;;;;;9.34;78.37;94397.02;1771494;80;20973;-51
2021/05/21 02:12:45;;;;;;;6.25;5.62;;;;;;;9.28;78.36;94400.19;1759535;80;20995;-50
2021/05/21 02:15:14;;;;;;;6.72;5.90;;;;;;;9.20;78.40;94406.53;1767449;80;21111;-50
2021/05/21 02:17:41;;;;;;;6.20;4.83;;;;;;;9.15;78.48;94413.19;1769186;80;21020;-51
2021/05/21 02:20:10;;;;;;;6.15;5.30;;;;;;;9.11;78.58;94403.70;1762969;80;21831;-50
2021/05/21 02:22:39;;;;;;;9.45;5.25;;;;;;;9.11;78.68;94411.94;1752907;80;21100;-50
2021/05/21 02:25:07;;;;;;;7.15;5.83;;;;;;;9.14;78.69;94411.66;1756122;80;20949;-49
2021/05/21 02:27:34;;;;;;;8.25;5.80;;;;;;;9.16;78.47;94416.09;1768619;80;20999;-50
2021/05/21 02:30:01;;;;;;;12.13;6.92;;;;;;;9.14;78.29;94414.41;1767722;80;21071;-50
2021/05/21 02:32:29;;;;;;;12.85;7.47;;;;;;;9.13;78.58;94418.36;1749764;80;21230;-49
2021/05/21 02:34:55;;;;;;;9.78;6.75;;;;;;;9.13;78.71;94410.91;1756889;80;21597;-50
2021/05/21 02:37:22;;;;;;;6.67;5.97;;;;;;;9.17;78.58;94423.11;1760780;80;20975;-50
2021/05/21 02:39:49;;;;;;;8.00;5.90;;;;;;;9.12;78.52;94427.22;1764115;80;21067;-50
2021/05/21 02:42:16;;;;;;;7.78;6.55;;;;;;;9.06;78.34;94419.99;1770178;80;21026;-49
2021/05/21 02:44:43;;;;;;;7.62;6.15;;;;;;;9.03;78.62;94431.86;1759045;80;21092;-48
2021/05/21 02:47:09;;;;;;;6.47;5.87;;;;;;;9.02;78.84;94427.55;1750578;80;21582;-51
2021/05/21 02:49:36;;;;;;;8.33;5.28;;;;;;;9.00;78.86;94429.98;1750668;80;21000;-50
2021/05/21 02:52:05;;;;;;;9.43;6.10;;;;;;;8.96;79.17;94428.75;1766420;80;21044;-50
2021/05/21 02:54:31;;;;;;;7.42;5.47;;;;;;;8.96;79.23;94423.27;1760161;80;21008;-51
2021/05/21 02:56:58;;;;;;;9.53;6.03;;;;;;;8.96;79.41;94426.01;1758884;80;21809;-53
2021/05/21 02:59:25;;;;;;;6.35;5.08;;;;;;;8.96;79.33;94426.01;1766128;80;20961;-50
2021/05/21 03:01:52;;;;;;;8.00;5.25;;;;;;;8.97;79.51;94426.16;1766184;80;21056;-52
2021/05/21 03:04:19;;;;;;;10.28;6.10;;;;;;;9.00;79.53;94430.77;1755374;80;21108;-52
2021/05/21 03:06:46;;;;;;;14.00;7.35;;;;;;;9.03;79.49;94433.98;1758606;80;21008;-50
2021/05/21 03:09:13;;;;;;;5.70;5.17;;;;;;;9.08;79.57;94436.77;1754017;80;21086;-49
2021/05/21 03:11:41;;;;;;;7.45;5.97;;;;;;;9.09;79.47;94438.30;1761794;80;21036;-53
2021/05/21 03:14:09;;;;;;;7.62;4.90;;;;;;;9.10;79.32;94446.08;1769318;80;21071;-53
2021/05/21 03:16:36;;;;;;;5.75;5.03;;;;;;;9.13;79.44;94444.43;1764849;80;20996;-56
2021/05/21 03:19:03;;;;;;;6.55;4.90;;;;;;;9.15;79.23;94443.38;1769151;80;20977;-58
2021/05/21 03:21:30;;;;;;;5.53;5.00;;;;;;;9.16;79.27;94446.28;1755406;80;21735;-58
2021/05/21 03:23:57;;;;;;;6.62;5.08;;;;;;;9.19;79.13;94446.75;1744572;80;21052;-56
2021/05/21 03:26:27;;;;;;;7.58;5.25;;;;;;;9.21;79.07;94445.73;1752591;80;20984;-57
2021/05/21 03:28:54;;;;;;;8.60;6.00;;;;;;;9.22;78.92;94447.27;1730027;80;21106;-56
2021/05/21 03:31:21;;;;;;;7.42;5.72;;;;;;;9.22;78.64;94448.64;1757346;80;21574;-51
2021/05/21 03:33:47;;;;;;;7.42;5.10;;;;;;;9.25;78.87;94448.49;1772347;80;21665;-51
2021/05/21 03:36:14;;;;;;;5.15;4.65;;;;;;;9.34;78.80;94457.41;1759524;80;20980;-49
2021/05/21 03:38:41;;;;;;;6.55;5.33;;;;;;;9.37;78.44;94451.02;1779565;80;21031;-49
2021/05/21 03:41:10;;;;;;;8.95;5.80;;;;;;;9.36;78.11;94449.48;1769000;80;21559;-52
2021/05/21 03:43:38;;;;;;;4.42;4.03;;;;;;;9.33;78.06;94453.91;1770046;80;21020;-50
2021/05/21 03:46:05;;;;;;;9.53;5.85;;;;;;;9.33;77.85;94458.63;1754785;80;21133;-56
2021/05/21 03:48:32;;;;;;;4.45;4.15;;;;;;;9.35;77.77;94457.56;1763214;80;21023;-56
2021/05/21 03:50:58;;;;;;;4.80;4.17;;;;;;;9.41;77.59;94459.30;1757545;80;21068;-56
2021/05/21 03:53:25;;;;;;;5.08;4.58;;;;;;;9.52;77.20;94465.78;1761719;80;21221;-53
2021/05/21 03:55:52;;;;;;;5.90;4.55;;;;;;;9.55;76.81;94464.88;1768005;80;20971;-51
2021/05/21 03:58:19;;;;;;;5.08;4.10;;;;;;;9.51;76.52;94468.37;1763890;80;21335;-52
2021/05/21 04:00:46;;;;;;;4.30;4.00;;;;;;;9.51;76.61;94468.37;1762748;80;20989;-50
2021/05/21 04:03:12;;;;;;;4.10;3.70;;;;;;;9.52;76.55;94468.53;1770377;80;21447;-53
2021/05/21 04:05:39;;;;;;;7.40;4.78;;;;;;;9.51;76.08;94471.89;1697044;80;21084;-53
2021/05/21 04:08:06;;;;;;;5.92;4.50;;;;;;;9.51;76.22;94473.86;1764865;80;21034;-53
2021/05/21 04:10:32;;;;;;;7.58;4.75;;;;;;;9.52;76.26;94474.02;1768192;80;21112;-52
2021/05/21 04:12:59;;;;;;;4.92;4.53;;;;;;;9.52;76.25;94472.64;1766274;80;21031;-52
2021/05/21 04:15:27;;;;;;;5.50;3.60;;;;;;;9.55;75.97;94473.12;1764995;80;21124;-51
2021/05/21 04:17:54;;;;;;;4.72;4.33;;;;;;;9.57;75.61;94470.69;1753411;80;21001;-51
2021/05/21 04:20:20;;;;;;;6.15;4.55;;;;;;;9.59;75.72;94469.66;1762331;80;21108;-53
2021/05/21 04:22:47;;;;;;;4.92;4.40;;;;;;;9.62;75.76;94481.13;1751633;80;21099;-52
2021/05/21 04:25:14;;;;;;;4.60;4.20;;;;;;;9.67;75.67;94481.91;1763188;80;21685;-53
2021/05/21 04:27:42;;;;;;;6.47;4.58;;;;;;;9.70;75.42;94481.02;1761019;80;21067;-55
2021/05/21 04:30:10;;;;;;;6.12;4.35;;;;;;;9.74;75.36;94484.39;1769686;80;21056;-54
2021/05/21 04:32:36;;;;;;;5.28;4.78;;;;;;;9.79;75.57;94485.21;1744811;80;21048;-52
2021/05/21 04:35:07;;;;;;;7.00;5.80;;;;;;;9.86;75.36;94489.84;1764055;80;21143;-53
2021/05/21 04:37:34;;;;;;;5.55;4.42;;;;;;;9.96;75.15;94492.04;1766106;80;20985;-51
2021/05/21 04:40:01;;;;;;;7.90;5.28;;;;;;;10.03;74.98;94489.83;1761484;80;20981;-51
2021/05/21 04:42:28;;;;;;;5.10;4.15;;;;;;;10.09;74.56;94489.98;1752649;80;21048;-53
2021/05/21 04:44:54;;;;;;;5.78;4.17;;;;;;;10.18;74.45;94492.80;1754178;80;20983;-52
2021/05/21 04:47:22;;;;;;;9.35;4.42;;;;;;;10.24;73.62;94492.36;1754335;80;21062;-54
2021/05/21 04:49:50;;;;;;;4.65;4.25;;;;;;;10.29;73.61;94493.14;1760848;80;21067;-53
2021/05/21 04:52:17;;;;;;;5.95;5.17;;;;;;;10.36;73.32;94494.27;1763626;80;21023;-56
2021/05/21 04:54:43;;;;;;;6.40;4.75;;;;;;;10.43;73.15;94497.51;1761035;80;21705;-53
2021/05/21 04:57:10;;;;;;;5.03;4.53;;;;;;;10.52;73.06;94492.66;1756202;80;21037;-53
2021/05/21 04:59:37;;;;;;;5.20;4.30;;;;;;;10.60;72.34;94490.55;1762556;80;22894;-51
2021/05/21 05:02:04;;;;;;;5.22;4.30;;;;;;;10.70;72.05;94495.48;1763206;80;20949;-53
2021/05/21 05:04:32;;;;;;;4.42;4.03;;;;;;;10.77;71.58;94491.20;1759607;80;21595;-55
2021/05/21 05:06:58;;;;;;;9.03;4.67;;;;;;;10.87;71.15;94493.38;1759376;80;21059;-55
2021/05/21 05:09:27;;;;;;;9.13;4.03;;;;;;;10.99;70.58;94486.37;1777025;80;20992;-52
2021/05/21 05:11:55;;;;;;;9.18;3.75;;;;;;;11.11;69.54;94488.23;1757177;80;22162;-53
2021/05/21 05:14:22;;;;;;;5.78;3.67;;;;;;;11.23;69.14;94484.59;1760993;80;21103;-54
2021/05/21 05:16:49;;;;;;;6.83;3.90;;;;;;;11.36;68.70;94483.81;1748745;80;21036;-55
2021/05/21 05:19:16;;;;;;;7.95;3.67;;;;;;;11.44;68.00;94483.69;1748855;80;21036;-54
2021/05/21 05:21:45;;;;;;;9.83;4.03;;;;;;;11.56;67.71;94485.53;1762491;80;21034;-53
2021/05/21 05:24:15;;;;;;;4.03;3.62;;;;;;;11.69;67.48;94482.02;1770935;80;21068;-52
2021/05/21 05:26:42;;;;;;;11.28;4.28;;;;;;;11.81;66.91;94477.56;1778153;80;21016;-54
2021/05/21 05:29:09;;;;;;;4.10;3.42;;;;;;;11.90;66.58;94485.22;1759166;80;21162;-52
2021/05/21 05:31:45;;;;;;;4.85;3.87;;;;;;;11.95;66.15;94483.23;1739651;80;20996;-55
2021/05/21 05:34:09;;;;;;;4.22;3.10;;;;;;;12.04;65.92;94490.09;1747731;80;21016;-54
2021/05/21 05:36:36;;;;;;;4.97;3.85;;;;;;;12.12;65.10;94473.38;1725757;81;21122;-53
2021/05/21 05:39:05;;;;;;;8.80;4.45;;;;;;;12.21;64.81;94490.52;1679145;83;21531;-54
2021/05/21 05:41:33;;;;;;;5.33;4.47;;;;;;;12.28;64.36;94490.95;1694981;83;21016;-51
2021/05/21 05:43:59;;;;;;;7.45;3.70;;;;;;;12.38;63.73;94488.33;1685114;83;21623;-55
2021/05/21 05:46:26;;;;;;;6.03;3.55;;;;;;;12.46;62.88;94478.48;1694284;83;21100;-55
2021/05/21 05:48:53;;;;;;;6.55;3.58;;;;;;;12.54;62.70;94476.94;1694904;83;22280;-52
2021/05/21 05:51:20;;;;;;;8.00;3.70;;;;;;;12.63;62.32;94485.95;1693565;83;21070;-56
2021/05/21 05:53:47;;;;;;;5.47;4.55;;;;;;;12.70;61.62;94482.09;1697509;83;21128;-56
2021/05/21 05:56:13;;;;;;;17.32;5.20;;;;;;;12.69;61.71;94479.94;1692893;81;21106;-54
2021/05/21 05:58:42;;;;;;;8.40;3.65;;;;;;;12.69;61.05;94481.95;1690813;83;21115;-55
2021/05/21 06:01:09;;;;;;;5.87;3.83;;;;;;;12.72;60.57;94482.39;1735436;80;21108;-55
2021/05/21 06:03:35;;;;;;;11.65;4.17;;;;;;;12.80;60.83;94486.32;1743410;80;22384;-53
2021/05/21 06:06:02;;;;;;;3.98;3.55;;;;;;;12.92;60.40;94477.07;1729113;80;21067;-57
2021/05/21 06:08:29;;;;;;;6.33;3.47;;;;;;;13.06;59.79;94480.56;1731979;80;21078;-60
2021/05/21 06:10:57;;;;;;;8.68;3.92;;;;;;;13.16;59.02;94476.49;1734905;80;21089;-55
2021/05/21 06:13:26;;;;;;;6.67;3.70;;;;;;;13.30;58.58;94474.41;1683106;82;21583;-57
2021/05/21 06:15:53;;;;;;;4.90;3.30;;;;;;;13.38;57.65;94475.58;1672657;83;21114;-57
2021/05/21 06:18:20;;;;;;;8.78;3.40;;;;;;;13.46;57.60;94474.00;1718370;81;21096;-51
2021/05/21 06:20:47;;;;;;;13.70;5.53;;;;;;;13.55;57.29;94468.39;1699486;82;21091;-52
2021/05/21 06:23:14;;;;;;;24.87;4.65;;;;;;;13.65;55.96;94474.00;1707607;81;21095;-52
2021/05/21 06:28:11;;;;;;;4.40;3.10;;;;;;;13.85;54.64;94477.65;1755549;80;21044;-53
2021/05/21 06:30:38;;;;;;;5.25;3.50;;;;;;;13.92;54.11;94470.38;1743428;80;21080;-57
2021/05/21 06:33:05;;;;;;;11.93;4.40;;;;;;;13.99;53.69;94469.25;1735419;80;21120;-53
2021/05/21 06:35:35;;;;;;;3.72;2.92;;;;;;;14.07;53.65;94471.77;1728937;80;21110;-52
2021/05/21 06:38:04;;;;;;;4.87;3.50;;;;;;;14.21;53.01;94469.67;1742092;80;21122;-54
2021/05/21 06:40:31;;;;;;;6.45;4.03;;;;;;;14.32;53.12;94465.72;1751464;79;21225;-52
2021/05/21 06:42:58;;;;;;;6.65;3.42;;;;;;;14.43;52.62;94468.05;1749093;80;21043;-54
2021/05/21 06:45:25;;;;;;;7.42;3.10;;;;;;;14.59;52.44;94475.23;1745723;80;21816;-58
2021/05/21 06:47:52;;;;;;;4.00;2.75;;;;;;;14.72;51.77;94471.55;1741041;80;21047;-57
2021/05/21 06:50:19;;;;;;;7.53;2.95;;;;;;;14.84;51.83;94473.23;1742260;80;21653;-55
2021/05/21 06:52:46;;;;;;;6.58;3.10;;;;;;;14.86;51.09;94474.92;1726277;80;21087;-57
2021/05/21 06:55:14;;;;;;;5.60;3.10;;;;;;;14.78;51.09;94472.39;1741231;80;22445;-55
2021/05/21 06:57:40;;;;;;;10.25;3.30;;;;;;;14.69;51.55;94464.20;1751883;80;21063;-53
2021/05/21 07:00:09;;;;;;;6.50;2.65;;;;;;;14.65;51.73;94465.00;1742382;80;21139;-57
2021/05/21 07:02:36;;;;;;;5.72;3.30;;;;;;;14.67;51.07;94469.44;1683267;82;21199;-54
2021/05/21 07:05:04;;;;;;;4.45;2.60;;;;;;;14.69;50.61;94467.58;1681418;83;21216;-52
2021/05/21 07:07:31;;;;;;;4.10;2.95;;;;;;;14.71;50.40;94468.64;1685469;83;21106;-56
2021/05/21 07:10:00;;;;;;;5.28;2.60;;;;;;;14.77;49.97;94466.70;1731536;80;21037;-51
2021/05/21 07:12:28;;;;;;;3.35;2.55;;;;;;;14.89;50.48;94457.94;1756468;80;21111;-59
2021/05/21 07:14:56;;;;;;;6.45;3.12;;;;;;;15.04;49.98;94460.80;1757710;80;21090;-55
2021/05/21 07:17:23;;;;;;;2.98;2.65;;;;;;;15.19;49.27;94458.00;1739927;80;21066;-56
2021/05/21 07:19:51;;;;;;;3.12;2.70;;;;;;;15.29;48.70;94457.41;1743397;80;21090;-54
2021/05/21 07:22:18;;;;;;;5.33;2.72;;;;;;;15.38;48.39;94458.66;1736807;80;22112;-54
2021/05/21 07:24:44;;;;;;;4.95;3.10;;;;;;;15.51;48.22;94456.30;1739119;79;21120;-54
2021/05/21 07:27:11;;;;;;;3.05;2.75;;;;;;;15.63;48.59;94457.20;1762113;80;21162;-55
2021/05/21 07:29:38;;;;;;;2.87;2.50;;;;;;;15.74;48.35;94456.70;1740364;80;21309;-60
2021/05/21 07:32:07;;;;;;;2.67;2.22;;;;;;;15.88;47.45;94461.41;1746015;80;21069;-57
2021/05/21 07:34:34;;;;;;;4.30;3.20;;;;;;;16.03;49.30;94456.53;1756633;80;21067;-56
2021/05/21 07:37:03;;;;;;;6.97;3.05;;;;;;;16.23;48.57;94456.48;1744489;80;21048;-56
2021/05/21 07:39:31;;;;;;;4.08;3.15;;;;;;;16.45;48.36;94459.48;1728622;80;21138;-55
2021/05/21 07:41:58;;;;;;;6.78;3.47;;;;;;;16.67;47.54;94449.33;1745657;80;21088;-55
2021/05/21 07:44:26;;;;;;;4.08;3.10;;;;;;;16.82;47.02;94453.34;1716736;81;21063;-55
2021/05/21 07:46:53;;;;;;;3.10;2.80;;;;;;;16.93;46.57;94455.58;1703277;83;21095;-63
2021/05/21 07:49:24;;;;;;;5.97;3.67;;;;;;;17.08;46.73;94452.02;1741677;80;21422;-57
2021/05/21 07:51:53;;;;;;;3.42;2.40;;;;;;;17.21;46.85;94458.53;1742448;80;21093;-58
2021/05/21 07:54:21;;;;;;;5.37;2.35;;;;;;;17.19;44.83;94452.72;1757118;80;21108;-56
2021/05/21 07:56:48;;;;;;;10.48;2.70;;;;;;;17.14;44.20;94450.05;1738242;80;21361;-58
2021/05/21 07:59:15;;;;;;;4.87;1.98;;;;;;;17.13;45.00;94451.93;1752901;79;21108;-62
2021/05/21 08:01:41;;;;;;;1.90;1.80;;;;;;;17.21;43.80;94454.36;1748530;79;21183;-57
2021/05/21 08:04:08;;;;;;;2.12;1.92;;;;;;;17.24;44.90;94449.97;1756257;80;21130;-57
2021/05/21 08:06:35;;;;;;;6.83;2.25;;;;;;;17.28;44.25;94443.55;1720245;81;21165;-55
2021/05/21 08:09:05;;;;;;;4.20;2.20;;;;;;;17.34;44.29;94442.22;1747653;80;21637;-54
2021/05/21 08:11:34;;;;;;;2.22;2.00;;;;;;;17.42;45.01;94448.84;1754882;79;21090;-54
2021/05/21 08:14:00;;;;;;;4.80;2.90;;;;;;;17.53;43.88;94450.27;1753271;80;21614;-57
2021/05/21 08:16:30;;;;;;;3.52;2.37;;;;;;;17.53;42.69;94446.88;1755782;80;21099;-55
2021/05/21 08:18:57;;;;;;;5.65;2.22;;;;;;;17.43;42.59;94446.94;1743732;80;21598;-57
2021/05/21 08:21:24;;;;;;;6.58;2.40;;;;;;;17.44;43.48;94444.94;1733307;80;21111;-58
2021/05/21 08:23:52;;;;;;;9.15;2.40;;;;;;;17.56;42.96;94453.45;1732878;80;21082;-55
2021/05/21 08:26:22;;;;;;;3.95;1.90;;;;;;;17.66;42.31;94454.77;1745563;80;21115;-61
2021/05/21 08:28:47;;;;;;;2.00;1.80;;;;;;;17.78;42.79;94454.92;1746957;80;21339;-57
2021/05/21 08:31:15;;;;;;;2.90;2.10;;;;;;;17.89;41.35;94457.76;1771923;80;21202;-54
2021/05/21 08:33:44;;;;;;;2.10;1.90;;;;;;;17.93;41.14;94446.52;1747021;80;21606;-54
2021/05/21 08:36:11;;;;;;;10.28;2.15;;;;;;;17.86;41.01;94443.45;1740925;80;21692;-56
2021/05/21 08:38:41;;;;;;;1.80;1.70;;;;;;;17.78;40.37;94453.53;1729451;80;21072;-54
2021/05/21 08:41:07;;;;;;;7.33;2.40;;;;;;;17.68;41.68;94441.11;1750852;80;21633;-58
2021/05/21 08:43:33;;;;;;;3.80;2.35;;;;;;;17.78;42.07;94442.41;1732581;80;21409;-56
2021/05/21 08:46:01;;;;;;;7.10;2.08;;;;;;;17.92;41.50;94445.62;1755261;80;21516;-56
2021/05/21 08:48:28;;;;;;;3.95;1.72;;;;;;;18.05;40.91;94442.48;1743192;80;21076;-55
2021/05/21 08:50:55;;;;;;;4.65;1.90;;;;;;;18.17;40.88;94440.52;1744119;80;21096;-55
2021/05/21 08:53:22;;;;;;;1.50;1.30;;;;;;;18.26;40.22;94441.04;1750479;80;21242;-57
2021/05/21 08:55:51;;;;;;;7.12;1.90;;;;;;;18.34;39.75;94440.07;1766502;80;21543;-55
2021/05/21 08:58:18;;;;;;;6.90;1.72;;;;;;;18.33;41.34;94430.81;1737883;80;21571;-55
2021/05/21 09:00:45;;;;;;;3.80;2.10;;;;;;;18.32;40.45;94432.83;1733206;80;21084;-55
2021/05/21 09:03:25;;;;;;;2.87;1.98;;;;;;;18.38;41.24;94431.44;1728175;80;21051;-53
2021/05/21 09:06:13;;;;;;;8.70;1.95;;;;;;;18.52;40.67;94440.98;1735258;80;21114;-55
2021/05/21 09:08:49;;;;;;;2.33;1.70;;;;;;;18.79;42.11;94430.45;1747414;80;21090;-57
2021/05/21 09:11:35;;;;;;;1.98;1.87;;;;;;;19.00;40.56;94434.48;1734846;80;21075;-55
2021/05/21 09:14:15;;;;;;;2.05;1.62;;;;;;;19.08;40.86;94438.30;1716075;81;21080;-55
2021/05/21 09:16:43;;;;;;;4.25;2.50;;;;;;;19.06;39.13;94435.26;1731750;80;21028;-54
2021/05/21 09:19:20;;;;;;;5.12;3.72;;;;;;;19.01;38.28;94433.22;1733623;80;21821;-56
2021/05/21 09:21:59;;;;;;;8.28;2.83;;;;;;;18.89;39.47;94427.55;1734839;80;20972;-56
2021/05/21 09:24:29;;;;;;;3.17;2.27;;;;;;;18.81;39.60;94426.52;1742580;80;21111;-53
2021/05/21 09:26:56;;;;;;;3.15;1.95;;;;;;;18.93;39.11;94416.89;1750658;80;21079;-53
2021/05/21 09:29:46;;;;;;;3.85;1.87;;;;;;;19.15;38.51;94418.89;1730168;80;21517;-53
2021/05/21 09:32:28;;;;;;;2.67;1.65;;;;;;;19.32;36.25;94413.41;1737544;80;22309;-56
2021/05/21 09:35:16;;;;;;;2.60;1.98;;;;;;;19.39;36.37;94415.67;1748567;80;21057;-53
2021/05/21 09:37:47;;;;;;;11.55;2.55;;;;;;;19.55;36.90;94410.67;1729720;80;21689;-55
2021/05/21 09:40:27;;;;;;;2.80;2.00;;;;;;;19.63;36.60;94419.27;1749635;80;21071;-54
2021/05/21 09:43:05;;;;;;;3.87;2.00;;;;;;;19.68;35.73;94414.30;1746484;80;21039;-55
2021/05/21 09:45:34;;;;;;;3.10;1.85;;;;;;;19.62;36.06;94422.72;1760155;80;21064;-55
2021/05/21 09:48:06;;;;;;;2.10;1.40;;;;;;;19.58;36.53;94414.48;1763318;80;21096;-54
2021/05/21 09:50:41;;;;;;;3.83;1.80;;;;;;;19.58;35.99;94406.85;1744144;80;21713;-57
2021/05/21 09:53:21;;;;;;;6.15;1.67;;;;;;;19.68;35.98;94409.48;1751044;80;21204;-52
2021/05/21 09:56:01;;;;;;;2.85;1.32;;;;;;;19.82;35.66;94417.41;1732358;80;21072;-54
2021/05/21 09:58:36;;;;;;;3.85;1.60;;;;;;;19.96;35.64;94416.34;1767614;80;21079;-53
2021/05/21 10:01:13;;;;;;;3.47;1.52;;;;;;;20.05;35.79;94412.64;1745125;80;21048;-54
2021/05/21 10:03:52;;;;;;;5.50;1.20;;;;;;;20.18;36.05;94412.82;1732356;80;21079;-55
2021/05/21 10:06:19;;;;;;;3.65;1.50;;;;;;;20.23;35.46;94424.59;1753538;80;21556;-58
2021/05/21 10:08:48;;;;;;;5.42;1.50;;;;;;;20.16;34.92;94418.17;1736600;80;21137;-55
2021/05/21 10:11:16;;;;;;;5.28;1.87;;;;;;;20.05;34.76;94411.23;1717269;82;21068;-57
2021/05/21 10:13:43;;;;;;;6.53;1.82;;;;;;;19.98;35.52;94410.38;1708311;81;21130;-56
2021/05/21 10:16:15;;;;;;;2.35;1.40;;;;;;;20.11;35.47;94404.97;1714520;81;21087;-56
2021/05/21 10:18:50;;;;;;;5.80;1.92;;;;;;;20.20;34.85;94410.27;1708134;82;21567;-57
2021/05/21 10:21:18;;;;;;;5.15;2.10;;;;;;;20.30;34.95;94409.44;1697403;83;21051;-55
2021/05/21 10:24:02;;;;;;;3.37;1.47;;;;;;;20.46;34.57;94398.02;1692417;83;21090;-55
2021/05/21 10:26:35;;;;;;;5.40;2.52;;;;;;;20.70;35.13;94407.88;1693461;83;21119;-55
2021/05/21 10:29:08;;;;;;;4.65;1.95;;;;;;;21.03;35.26;94393.61;1700972;82;22272;-53
2021/05/21 10:31:35;;;;;;;2.70;1.55;;;;;;;21.40;33.72;94392.34;1695998;83;21106;-54
2021/05/21 10:34:16;;;;;;;7.58;1.60;;;;;;;21.65;32.02;94382.68;1701049;82;21090;-55
2021/05/21 10:37:23;;;;;;;4.80;1.65;;;;;;;21.80;34.47;94379.55;1701140;83;21093;-57
2021/05/21 10:40:14;;;;;;;4.83;1.92;;;;;;;21.83;31.88;94384.75;1679414;83;22254;-55
2021/05/21 10:43:00;;;;;;;3.62;1.30;;;;;;;21.51;31.97;94388.03;1758543;80;21012;-55
2021/05/21 10:45:54;;;;;;;4.25;1.42;;;;;;;21.16;31.19;94383.33;1735430;80;21552;-55
2021/05/21 10:48:26;;;;;;;4.08;2.50;;;;;;;20.87;31.73;94379.91;1736534;82;21110;-55
2021/05/21 10:51:10;;;;;;;2.42;1.85;;;;;;;21.03;32.24;94376.20;1752526;80;21182;-57
2021/05/21 10:53:43;;;;;;;3.62;1.30;;;;;;;21.50;32.76;94382.31;1751182;80;21443;-55
2021/05/21 10:56:10;;;;;;;1.75;1.27;;;;;;;21.56;31.40;94373.20;1718808;80;21171;-55
2021/05/21 10:58:45;;;;;;;6.83;1.82;;;;;;;21.71;31.44;94369.36;1745141;80;21109;-56
2021/05/21 11:01:16;;;;;;;2.77;1.50;;;;;;;22.06;30.39;94373.47;1761014;80;21064;-54
2021/05/21 11:04:10;;;;;;;4.60;1.67;;;;;;;22.50;29.10;94378.44;1756855;80;21160;-53
2021/05/21 11:06:48;;;;;;;3.40;1.40;;;;;;;22.95;29.57;94367.25;1743030;80;22028;-59
2021/05/21 11:09:21;;;;;;;1.27;1.07;;;;;;;23.59;28.00;94375.01;1758015;80;21028;-57
2021/05/21 11:11:57;;;;;;;4.90;1.20;;;;;;;24.00;27.54;94366.14;1707300;82;21103;-52
2021/05/21 11:14:30;;;;;;;5.35;1.77;;;;;;;24.36;26.63;94367.80;1712685;81;21700;-57
2021/05/21 11:17:14;;;;;;;6.90;1.35;;;;;;;24.70;26.75;94371.34;1701439;83;21116;-54
2021/05/21 11:19:50;;;;;;;4.65;0.80;;;;;;;24.93;25.75;94366.03;1753608;80;21188;-53
2021/05/21 11:22:37;;;;;;;3.35;1.00;;;;;;;25.06;25.08;94355.34;1755206;80;21032;-54
2021/05/21 11:25:16;;;;;;;3.10;1.32;;;;;;;25.10;25.29;94362.81;1732417;81;21594;-54
2021/05/21 11:27:44;;;;;;;7.30;1.42;;;;;;;25.24;26.03;94353.75;1737533;80;21067;-58
2021/05/21 11:30:19;;;;;;;9.28;2.17;;;;;;;25.19;25.42;94353.89;1689200;81;21170;-57
2021/05/21 11:32:45;;;;;;;2.60;1.10;;;;;;;24.69;25.25;94354.36;1749308;80;21163;-56
2021/05/21 11:35:13;;;;;;;4.47;1.10;;;;;;;24.13;26.14;94356.91;1735614;80;21011;-61
2021/05/21 11:37:42;;;;;;;1.57;1.02;;;;;;;23.69;26.63;94353.63;1741291;80;22328;-55
2021/05/21 11:40:10;;;;;;;2.25;1.20;;;;;;;23.55;26.39;94336.67;1740411;80;21598;-55
2021/05/21 11:42:38;;;;;;;2.17;0.70;;;;;;;23.82;26.87;94332.57;1745111;79;21106;-57
2021/05/21 11:45:07;;;;;;;1.27;0.90;;;;;;;24.31;25.36;94339.13;1715961;80;21062;-54